Time;durP1;ratioP1;P1;durP2;ratioP2;P2;SDS_P1;SDS_P2;PMS_P1;PMS_P2;Temp;Humidity;BMP_temperature;BMP_pressure;BME280_temperature;BME280_humidity;BME280_pressure;Samples;Min_cycle;Max_cycle;Signal;HPM_P1;HPM_P2
2022/10/04 00:04:45;;;;;;;14.45;10.52;;;19.10;79.80;;;;;;10825880;33;20035;-77
2022/10/04 00:10:47;;;;;;;14.23;11.65;;;19.00;79.90;;;;;;10826039;33;20054;-77
2022/10/04 00:16:51;;;;;;;13.75;11.30;;;19.10;80.00;;;;;;10826928;32;20071;-76
2022/10/04 00:23:32;;;;;;;16.10;13.13;;;19.00;80.00;;;;;;10830900;33;20028;-76
2022/10/04 00:29:38;;;;;;;16.87;12.63;;;19.00;80.30;;;;;;10752096;33;20067;-76
2022/10/04 00:35:49;;;;;;;13.18;10.98;;;18.80;80.30;;;;;;10749647;33;20413;-76
2022/10/04 00:42:25;;;;;;;20.20;14.43;;;18.70;80.20;;;;;;10757558;33;20055;-77
2022/10/04 00:48:33;;;;;;;14.70;12.68;;;18.60;80.50;;;;;;10760336;33;20329;-76
2022/10/04 00:54:40;;;;;;;11.20;9.60;;;18.70;80.40;;;;;;10760391;33;20064;-77
2022/10/04 01:00:44;;;;;;;14.52;11.85;;;18.60;80.70;;;;;;10760146;33;20125;-76
2022/10/04 01:06:46;;;;;;;15.80;12.90;;;18.50;80.60;;;;;;10819391;33;20050;-76
2022/10/04 01:13:10;;;;;;;17.92;14.82;;;18.60;80.80;;;;;;10832897;33;20377;-76
2022/10/04 01:19:21;;;;;;;14.02;12.00;;;18.50;80.60;;;;;;10836743;32;20320;-76
2022/10/04 01:25:46;;;;;;;14.13;12.52;;;18.50;80.90;;;;;;10836102;32;20051;-75
2022/10/04 01:31:50;;;;;;;14.35;12.13;;;18.50;81.20;;;;;;10833134;32;20023;-76
2022/10/04 01:37:54;;;;;;;15.15;13.55;;;18.50;81.30;;;;;;10835920;32;20062;-76
2022/10/04 01:44:02;;;;;;;15.18;12.25;;;18.50;81.20;;;;;;10835440;32;20024;-76
2022/10/04 01:50:30;;;;;;;12.27;10.68;;;18.50;81.20;;;;;;10834864;32;20055;-76
2022/10/04 01:56:41;;;;;;;14.70;11.48;;;18.50;81.50;;;;;;10835468;32;20016;-76
2022/10/04 02:02:51;;;;;;;12.43;9.98;;;18.40;81.40;;;;;;10835295;32;20019;-77
2022/10/04 02:08:58;;;;;;;12.55;10.85;;;18.40;81.40;;;;;;10834913;32;20393;-76
2022/10/04 02:15:05;;;;;;;13.15;11.07;;;18.40;81.40;;;;;;10821257;32;20054;-76
2022/10/04 02:21:08;;;;;;;16.17;11.52;;;18.40;81.40;;;;;;10832445;32;20028;-76
2022/10/04 02:27:11;;;;;;;13.30;10.82;;;18.40;81.50;;;;;;10817149;33;20058;-76
2022/10/04 02:33:13;;;;;;;11.65;10.13;;;18.30;81.60;;;;;;10832802;32;20029;-76
2022/10/04 02:39:23;;;;;;;11.20;9.93;;;18.30;81.70;;;;;;10832650;32;20020;-77
2022/10/04 02:45:46;;;;;;;10.98;9.73;;;18.30;81.80;;;;;;10832415;32;20043;-77
2022/10/04 02:51:59;;;;;;;10.15;8.70;;;18.20;82.00;;;;;;10832237;32;20042;-76
2022/10/04 02:58:07;;;;;;;11.27;9.68;;;18.20;82.20;;;;;;10831795;32;20078;-77
2022/10/04 03:04:13;;;;;;;10.27;8.40;;;18.10;82.30;;;;;;10831543;32;20020;-76
2022/10/04 03:10:16;;;;;;;11.00;7.45;;;18.10;82.40;;;;;;10814978;33;20124;-76
2022/10/04 03:16:20;;;;;;;8.85;6.68;;;18.10;82.50;;;;;;10831545;32;20043;-76
2022/10/04 03:22:23;;;;;;;9.13;6.35;;;18.10;82.60;;;;;;10831239;32;20345;-76
2022/10/04 03:28:27;;;;;;;6.10;4.70;;;18.00;82.60;;;;;;10828445;32;20062;-76
2022/10/04 03:34:39;;;;;;;10.25;4.95;;;18.00;82.70;;;;;;10818794;32;20032;-76
2022/10/04 03:41:03;;;;;;;6.68;4.80;;;17.90;82.90;;;;;;10827454;33;20055;-77
2022/10/04 03:47:11;;;;;;;6.72;5.07;;;17.90;83.00;;;;;;10827244;32;20058;-76
2022/10/04 03:53:44;;;;;;;6.60;4.68;;;17.90;83.20;;;;;;10830679;32;20055;-76
2022/10/04 03:59:57;;;;;;;7.05;4.62;;;17.90;83.00;;;;;;10750318;33;20335;-77
2022/10/04 04:06:06;;;;;;;5.35;4.30;;;17.90;82.80;;;;;;10754052;33;20155;-77
2022/10/04 04:12:17;;;;;;;7.78;4.28;;;17.80;82.90;;;;;;10752665;33;20070;-76
2022/10/04 04:18:24;;;;;;;6.80;3.65;;;17.80;83.10;;;;;;10755696;33;20052;-76
2022/10/04 04:24:30;;;;;;;5.07;3.30;;;17.80;83.30;;;;;;10761336;33;20342;-77
2022/10/04 04:31:04;;;;;;;3.95;3.00;;;17.80;83.30;;;;;;10761293;33;20098;-77
2022/10/04 04:37:09;;;;;;;3.50;2.58;;;17.80;83.20;;;;;;10834517;32;20399;-76
2022/10/04 04:43:19;;;;;;;5.72;3.50;;;17.70;83.30;;;;;;10836604;32;20047;-77
2022/10/04 04:49:22;;;;;;;2.95;2.65;;;17.70;83.50;;;;;;10834336;32;20036;-77
2022/10/04 04:55:33;;;;;;;4.12;3.20;;;17.60;83.40;;;;;;10833431;32;20317;-78
2022/10/04 05:01:44;;;;;;;4.00;2.28;;;17.50;83.50;;;;;;10835333;32;20336;-77
2022/10/04 05:07:46;;;;;;;4.18;2.65;;;17.50;83.70;;;;;;10832912;33;20031;-76
2022/10/04 05:13:54;;;;;;;4.80;2.65;;;17.40;83.80;;;;;;10833567;32;20032;-77
2022/10/04 05:19:59;;;;;;;3.25;1.95;;;17.40;83.80;;;;;;10834798;32;20028;-77
2022/10/04 05:26:03;;;;;;;2.62;1.87;;;17.40;83.80;;;;;;10832378;32;20046;-77
2022/10/04 05:32:19;;;;;;;2.95;2.17;;;17.40;83.70;;;;;;10832581;32;20063;-77
2022/10/04 05:38:38;;;;;;;3.33;2.42;;;17.40;83.70;;;;;;10832011;32;20046;-76
2022/10/04 05:44:57;;;;;;;2.70;2.37;;;17.40;83.90;;;;;;10830366;33;20058;-77
2022/10/04 05:50:59;;;;;;;3.67;2.30;;;17.30;83.90;;;;;;10834437;32;20390;-77
2022/10/04 05:57:14;;;;;;;2.72;1.73;;;17.30;84.00;;;;;;10832009;32;20492;-77
2022/10/04 06:03:16;;;;;;;2.70;1.85;;;17.30;83.90;;;;;;10833955;32;20051;-77
2022/10/04 06:09:44;;;;;;;2.08;1.45;;;17.40;83.80;;;;;;10833030;32;20059;-77
2022/10/04 06:15:50;;;;;;;3.08;1.85;;;17.40;83.70;;;;;;10835079;27;20033;-78
2022/10/04 06:21:58;;;;;;;3.47;1.98;;;17.50;83.70;;;;;;10834529;32;20027;-77
2022/10/04 06:28:30;;;;;;;3.30;2.35;;;17.60;83.60;;;;;;10830830;32;20114;-79
2022/10/04 06:35:12;;;;;;;3.33;2.00;;;17.60;83.60;;;;;;10828894;33;20024;-78
2022/10/04 06:41:37;;;;;;;2.50;1.60;;;17.60;83.80;;;;;;10829689;32;20032;-77
2022/10/04 06:48:02;;;;;;;3.37;2.10;;;17.60;84.10;;;;;;10831433;32;20028;-78
2022/10/04 06:54:37;;;;;;;2.30;2.03;;;17.70;84.10;;;;;;10832416;32;20016;-77
2022/10/04 07:00:45;;;;;;;2.37;1.85;;;17.70;84.10;;;;;;10813320;33;20031;-79
2022/10/04 07:07:25;;;;;;;4.45;2.17;;;17.70;84.00;;;;;;10826502;32;20056;-78
2022/10/04 07:13:32;;;;;;;2.53;1.75;;;17.70;83.90;;;;;;10754904;32;20020;-80
2022/10/04 07:19:50;;;;;;;2.70;1.75;;;17.80;83.90;;;;;;10732157;33;20151;-77
2022/10/04 07:25:59;;;;;;;2.97;2.00;;;17.80;83.50;;;;;;10753995;32;20326;-77
2022/10/04 07:32:07;;;;;;;3.43;2.27;;;17.90;83.40;;;;;;10753673;32;20028;-78
2022/10/04 07:38:16;;;;;;;2.60;2.03;;;18.00;83.30;;;;;;10749430;32;20032;-82
2022/10/04 07:44:22;;;;;;;2.42;1.65;;;18.10;83.20;;;;;;10753536;32;20325;-75
2022/10/04 07:50:31;;;;;;;2.55;2.00;;;18.20;82.80;;;;;;10829076;32;20051;-75
2022/10/04 07:56:51;;;;;;;2.35;1.80;;;18.30;82.70;;;;;;10826198;32;20047;-75
2022/10/04 08:03:14;;;;;;;2.40;1.65;;;18.50;82.70;;;;;;10829153;32;20035;-75
2022/10/04 08:09:44;;;;;;;2.78;2.00;;;18.50;82.60;;;;;;10825139;32;20411;-75
2022/10/04 08:15:46;;;;;;;3.15;2.20;;;18.60;82.30;;;;;;10414280;33;11851479;-76
2022/10/04 08:22:01;;;;;;;1.65;1.45;;;18.70;82.10;;;;;;10779229;33;20032;-74
2022/10/04 08:34:53;;;;;;;2.70;1.67;;;18.80;81.70;;;;;;10789925;33;20054;-77
2022/10/04 08:41:01;;;;;;;1.98;1.75;;;18.90;81.30;;;;;;10834646;32;20035;-77
2022/10/04 08:47:04;;;;;;;3.00;2.13;;;19.00;81.20;;;;;;10866434;32;20019;-76
2022/10/04 08:53:50;;;;;;;2.90;1.95;;;19.10;81.50;;;;;;10852889;32;20055;-77
2022/10/04 09:00:25;;;;;;;3.00;2.00;;;19.30;80.70;;;;;;10752910;33;20028;-78
2022/10/04 09:06:42;;;;;;;2.00;1.62;;;19.30;80.40;;;;;;10758155;33;20128;-80
2022/10/04 09:12:54;;;;;;;3.83;2.40;;;19.50;79.90;;;;;;10758384;33;20076;-80
2022/10/04 09:19:05;;;;;;;2.92;1.80;;;19.60;79.80;;;;;;10758880;33;20234;-78
2022/10/04 09:25:24;;;;;;;2.80;1.73;;;19.70;79.30;;;;;;10756450;33;20051;-77
2022/10/04 09:31:44;;;;;;;2.80;1.80;;;19.70;78.80;;;;;;10757562;33;20078;-77
2022/10/04 09:38:17;;;;;;;2.78;1.77;;;19.70;78.80;;;;;;10867755;32;20086;-79
2022/10/04 09:44:53;;;;;;;3.40;1.98;;;19.70;78.50;;;;;;10871695;32;20023;-77
2022/10/04 09:51:17;;;;;;;3.37;2.25;;;19.80;78.80;;;;;;10868726;32;20031;-77
2022/10/04 09:57:31;;;;;;;4.10;2.33;;;19.80;78.80;;;;;;10867505;32;20024;-80
2022/10/04 10:03:42;;;;;;;4.10;2.10;;;20.00;79.10;;;;;;10871271;32;20024;-77
2022/10/04 10:16:52;;;;;;;5.05;3.17;;;20.00;78.70;;;;;;10865694;32;20102;-79
2022/10/04 10:23:00;;;;;;;5.63;2.83;;;20.10;78.60;;;;;;10795475;32;20059;-78
2022/10/04 10:29:34;;;;;;;3.90;2.03;;;20.20;78.10;;;;;;10796164;33;20324;-79
2022/10/04 10:35:55;;;;;;;6.80;2.78;;;20.20;78.10;;;;;;10791486;33;20059;-78
2022/10/04 10:42:26;;;;;;;3.12;2.00;;;20.30;78.40;;;;;;10792105;33;20056;-79
2022/10/04 10:48:51;;;;;;;3.37;2.22;;;20.30;78.00;;;;;;10794464;33;20041;-77
2022/10/04 10:55:24;;;;;;;5.07;2.47;;;20.40;77.50;;;;;;10795661;33;20066;-78
2022/10/04 11:01:29;;;;;;;4.90;2.75;;;20.50;77.50;;;;;;10795580;33;20060;-78
2022/10/04 11:08:15;;;;;;;3.95;2.53;;;20.60;77.20;;;;;;10793655;33;20021;-78
2022/10/04 11:14:32;;;;;;;6.03;2.78;;;20.60;77.10;;;;;;10787625;33;20059;-82
2022/10/04 11:20:54;;;;;;;4.45;2.20;;;20.80;76.90;;;;;;10780400;33;20023;-78
2022/10/04 11:27:27;;;;;;;3.83;2.40;;;20.80;76.30;;;;;;10783124;33;20040;-78
2022/10/04 11:33:51;;;;;;;2.87;2.15;;;21.00;76.00;;;;;;10790282;33;20028;-78
2022/10/04 11:39:56;;;;;;;4.97;3.22;;;21.10;75.80;;;;;;10789936;33;20378;-78
2022/10/04 11:46:07;;;;;;;3.22;2.45;;;21.30;75.50;;;;;;10789887;33;20038;-79
2022/10/04 11:52:43;;;;;;;4.10;2.25;;;21.30;75.10;;;;;;10789738;33;20338;-79
2022/10/04 11:59:09;;;;;;;3.87;2.45;;;21.30;74.80;;;;;;10793473;33;20035;-78
2022/10/04 12:05:20;;;;;;;3.37;2.17;;;21.30;74.10;;;;;;10789226;33;20058;-78
2022/10/04 12:17:58;;;;;;;7.78;3.35;;;21.40;73.40;;;;;;10793460;33;20055;-77
2022/10/04 12:24:21;;;;;;;7.00;2.67;;;21.30;73.40;;;;;;10788971;33;20025;-78
2022/10/04 12:30:41;;;;;;;14.85;2.62;;;21.40;73.10;;;;;;10792634;33;20033;-78
2022/10/04 12:37:03;;;;;;;2.72;1.83;;;21.50;73.00;;;;;;10795498;33;20051;-78
2022/10/04 12:43:22;;;;;;;3.92;2.20;;;21.40;73.00;;;;;;10800426;33;20033;-77
2022/10/04 12:49:31;;;;;;;5.87;2.00;;;21.50;73.10;;;;;;10799839;33;20024;-78
2022/10/04 12:55:42;;;;;;;3.85;2.15;;;21.50;73.00;;;;;;10800053;33;20325;-78
2022/10/04 13:01:53;;;;;;;4.18;1.62;;;21.60;72.50;;;;;;10799267;33;20427;-77
2022/10/04 13:08:17;;;;;;;2.42;2.10;;;21.60;72.70;;;;;;10798858;33;20055;-77
2022/10/04 13:14:48;;;;;;;2.90;1.80;;;21.60;72.80;;;;;;10795520;33;20043;-77
2022/10/04 13:21:15;;;;;;;3.17;1.62;;;21.60;72.60;;;;;;10795298;33;20028;-77
2022/10/04 13:27:19;;;;;;;3.60;1.80;;;21.60;72.50;;;;;;10798952;33;20085;-77
2022/10/04 13:33:43;;;;;;;4.75;2.30;;;21.50;72.60;;;;;;10798746;33;20017;-77
2022/10/04 13:40:09;;;;;;;5.90;2.05;;;21.60;72.30;;;;;;10798491;33;20051;-77
2022/10/04 13:46:28;;;;;;;3.08;1.83;;;21.50;72.50;;;;;;10797391;33;20043;-77
2022/10/04 13:59:43;;;;;;;2.60;1.62;;;21.50;72.80;;;;;;10821990;32;20458;-77
2022/10/04 14:06:06;;;;;;;8.10;2.67;;;21.60;72.80;;;;;;10832607;32;20029;-78
2022/10/04 14:12:24;;;;;;;2.58;1.77;;;21.70;72.60;;;;;;10834265;27;20267;-77
2022/10/04 14:18:51;;;;;;;2.10;1.60;;;21.80;72.50;;;;;;10779927;33;20082;-78
2022/10/04 14:25:18;;;;;;;2.17;1.75;;;21.90;72.40;;;;;;10796300;33;20047;-77
2022/10/04 14:31:41;;;;;;;3.42;2.25;;;21.90;72.40;;;;;;10796684;33;20028;-77
2022/10/04 14:38:19;;;;;;;2.53;1.87;;;22.00;72.00;;;;;;10754392;33;20055;-76
2022/10/04 14:45:03;;;;;;;2.47;1.80;;;21.90;71.80;;;;;;10752969;33;20033;-76
2022/10/04 14:51:40;;;;;;;2.17;1.75;;;22.00;71.80;;;;;;10739492;33;20044;-77
2022/10/04 14:58:21;;;;;;;3.50;2.33;;;22.10;71.80;;;;;;10754024;33;20067;-77
2022/10/04 15:04:40;;;;;;;3.78;1.98;;;22.20;71.50;;;;;;10754032;33;20046;-77
2022/10/04 15:10:57;;;;;;;2.75;1.90;;;22.20;71.30;;;;;;10750057;33;20401;-77
2022/10/04 15:17:02;;;;;;;6.10;2.35;;;22.40;70.90;;;;;;10781314;33;20054;-77
2022/10/04 15:23:07;;;;;;;5.10;2.53;;;22.60;70.60;;;;;;10778987;33;20039;-78
2022/10/04 15:29:22;;;;;;;2.15;1.80;;;23.00;69.80;;;;;;10785899;33;20381;-77
2022/10/04 15:35:46;;;;;;;2.35;1.58;;;24.10;67.80;;;;;;10794570;33;20016;-77
2022/10/04 15:41:55;;;;;;;2.55;2.00;;;24.80;66.30;;;;;;10784180;33;20087;-77
2022/10/04 15:48:10;;;;;;;3.10;2.08;;;24.70;67.00;;;;;;10770340;33;20041;-77
2022/10/04 15:54:20;;;;;;;5.53;1.60;;;25.00;66.40;;;;;;10766446;33;20043;-78
2022/10/04 16:00:27;;;;;;;2.75;1.67;;;24.80;66.90;;;;;;10765004;32;20299;-78
2022/10/04 16:06:40;;;;;;;2.22;1.55;;;24.60;67.50;;;;;;10816401;33;20055;-77
2022/10/04 16:13:16;;;;;;;3.20;2.17;;;24.10;68.20;;;;;;10798097;32;20392;-78
2022/10/04 16:20:03;;;;;;;5.70;2.53;;;23.30;69.70;;;;;;10802638;33;20062;-78
2022/10/04 16:26:12;;;;;;;2.33;1.65;;;22.80;70.90;;;;;;10789099;33;20032;-78
2022/10/04 16:32:26;;;;;;;2.45;1.90;;;22.30;71.60;;;;;;10789662;33;20066;-78
2022/10/04 16:38:33;;;;;;;1.50;1.23;;;22.10;72.10;;;;;;10759100;33;20028;-78
2022/10/04 16:44:51;;;;;;;6.18;1.35;;;21.90;72.50;;;;;;10796314;33;20043;-77
2022/10/04 16:51:18;;;;;;;4.03;1.87;;;21.70;72.70;;;;;;10791971;33;20055;-78
2022/10/04 16:57:26;;;;;;;1.62;1.45;;;21.50;73.00;;;;;;10788229;33;20025;-78
2022/10/04 17:10:05;;;;;;;2.42;1.73;;;21.20;73.50;;;;;;10788284;33;20393;-78
2022/10/04 17:16:14;;;;;;;9.73;2.45;;;21.00;74.00;;;;;;10755650;33;20346;-78
2022/10/04 17:22:33;;;;;;;4.05;2.00;;;20.90;74.50;;;;;;10790080;33;20060;-77
2022/10/04 17:29:16;;;;;;;2.28;2.08;;;20.80;74.90;;;;;;10794496;33;20028;-78
2022/10/04 17:35:55;;;;;;;4.97;2.75;;;20.70;75.20;;;;;;10685919;33;20418;-78
2022/10/04 17:42:01;;;;;;;2.90;1.77;;;20.70;75.30;;;;;;10682457;33;20021;-78
2022/10/04 18:01:24;;;;;;;4.87;2.60;;;20.50;75.60;;;;;;10684925;33;20056;-77
2022/10/04 18:07:36;;;;;;;5.53;3.00;;;20.40;76.00;;;;;;10737887;33;20428;-77
2022/10/04 18:13:56;;;;;;;5.57;3.35;;;20.30;76.10;;;;;;10796776;33;20028;-77
2022/10/04 18:20:54;;;;;;;4.68;2.90;;;20.30;76.20;;;;;;10796723;33;20430;-78
2022/10/04 18:27:04;;;;;;;3.30;2.42;;;20.20;76.40;;;;;;10719525;33;20064;-77
2022/10/04 18:33:15;;;;;;;3.55;2.47;;;20.20;76.70;;;;;;10718295;33;20094;-77
2022/10/04 18:39:25;;;;;;;6.97;4.12;;;20.20;76.80;;;;;;10719816;33;20477;-78
2022/10/04 18:45:32;;;;;;;6.53;3.83;;;20.10;77.00;;;;;;10715638;33;20334;-77
2022/10/04 18:51:50;;;;;;;5.72;3.40;;;20.00;77.50;;;;;;10717213;33;20025;-77
2022/10/04 19:05:16;;;;;;;10.68;4.87;;;19.90;77.50;;;;;;10791254;33;20016;-77
2022/10/04 19:11:43;;;;;;;5.97;4.30;;;19.80;77.60;;;;;;10683012;33;20041;-77
2022/10/04 19:17:53;;;;;;;4.03;3.25;;;19.80;77.70;;;;;;10681338;33;20025;-77
2022/10/04 19:24:12;;;;;;;8.70;4.15;;;19.80;77.90;;;;;;10677376;33;20036;-77
2022/10/04 19:30:49;;;;;;;4.80;3.58;;;19.70;78.30;;;;;;10677274;33;20029;-78
2022/10/04 19:37:07;;;;;;;7.53;4.95;;;19.70;78.50;;;;;;10681216;33;20115;-77
2022/10/04 19:43:17;;;;;;;5.65;3.80;;;19.60;78.70;;;;;;10690407;33;20062;-77
2022/10/04 19:49:42;;;;;;;7.57;4.07;;;19.60;78.60;;;;;;10793682;33;20024;-77
2022/10/04 19:55:58;;;;;;;4.97;3.62;;;19.50;78.50;;;;;;10789608;33;20310;-77
2022/10/04 20:02:00;;;;;;;6.28;4.53;;;19.50;78.60;;;;;;10793183;33;20394;-78
2022/10/04 20:08:10;;;;;;;9.27;3.65;;;19.50;78.80;;;;;;10793200;33;20021;-77
2022/10/04 20:14:22;;;;;;;5.50;4.07;;;19.40;79.00;;;;;;10793125;33;20043;-77
2022/10/04 20:20:53;;;;;;;6.80;4.57;;;19.30;78.90;;;;;;10793098;33;20020;-77
2022/10/04 20:27:07;;;;;;;7.65;4.55;;;19.30;79.00;;;;;;10680888;33;20044;-77
2022/10/04 20:33:45;;;;;;;6.28;4.07;;;19.30;79.30;;;;;;10677208;33;20021;-77
2022/10/04 20:39:52;;;;;;;5.30;3.67;;;19.30;79.40;;;;;;10678224;33;20056;-77
2022/10/04 20:45:55;;;;;;;7.75;4.18;;;19.30;79.30;;;;;;10667732;33;20051;-77
2022/10/04 20:51:57;;;;;;;6.18;4.50;;;19.20;79.30;;;;;;10680614;33;20472;-77
2022/10/04 20:58:24;;;;;;;8.15;4.70;;;19.20;79.40;;;;;;10683504;33;20025;-77
2022/10/04 21:04:40;;;;;;;5.87;4.32;;;19.20;79.40;;;;;;10676927;33;20369;-77
2022/10/04 21:11:19;;;;;;;6.72;4.75;;;19.10;79.50;;;;;;10681939;33;20447;-77
2022/10/04 21:17:30;;;;;;;6.78;5.45;;;19.10;79.50;;;;;;10685816;33;20067;-77
2022/10/04 21:23:36;;;;;;;14.07;4.97;;;19.20;79.60;;;;;;10682942;33;20434;-77
2022/10/04 21:29:53;;;;;;;7.60;5.65;;;19.10;79.60;;;;;;10686478;33;20056;-77
2022/10/04 21:36:41;;;;;;;6.72;5.28;;;19.00;79.60;;;;;;10685311;33;20444;-77
2022/10/04 21:42:43;;;;;;;7.00;4.90;;;19.00;79.60;;;;;;10797843;33;20035;-77
2022/10/04 21:48:45;;;;;;;6.47;4.82;;;19.00;79.70;;;;;;10797725;33;20020;-77
2022/10/04 21:54:48;;;;;;;5.53;3.83;;;19.00;80.00;;;;;;10797685;33;20051;-77
2022/10/04 22:00:50;;;;;;;5.47;4.18;;;18.90;80.10;;;;;;10793242;33;20058;-77
2022/10/04 22:07:18;;;;;;;10.00;6.32;;;18.90;80.00;;;;;;10681136;33;20464;-77
2022/10/04 22:13:20;;;;;;;6.07;3.90;;;18.90;80.10;;;;;;10684271;27;20068;-77
2022/10/04 22:19:31;;;;;;;9.73;6.28;;;18.90;80.20;;;;;;10681924;33;20025;-77
2022/10/04 22:25:34;;;;;;;10.55;5.50;;;18.90;80.20;;;;;;10681818;33;20056;-77
2022/10/04 22:31:36;;;;;;;6.47;5.70;;;19.00;80.20;;;;;;10777764;33;20423;-77
2022/10/04 22:37:38;;;;;;;13.10;5.87;;;19.00;80.20;;;;;;10796166;33;20086;-77
2022/10/04 22:44:09;;;;;;;7.10;5.70;;;18.90;80.20;;;;;;10792032;33;20016;-78
2022/10/04 22:50:30;;;;;;;7.28;4.68;;;18.90;80.40;;;;;;10795654;33;20040;-77
2022/10/04 22:56:32;;;;;;;8.30;5.15;;;18.90;80.80;;;;;;10791448;33;20051;-77
2022/10/04 23:02:34;;;;;;;9.85;6.50;;;18.90;80.70;;;;;;10791312;33;20051;-77
2022/10/04 23:08:43;;;;;;;6.50;4.72;;;18.90;80.70;;;;;;10791024;33;20055;-77
2022/10/04 23:14:45;;;;;;;9.70;5.53;;;18.90;80.70;;;;;;10793983;33;20020;-77
2022/10/04 23:20:56;;;;;;;8.15;6.53;;;18.90;80.90;;;;;;10790313;33;20024;-77
2022/10/04 23:27:02;;;;;;;10.50;5.35;;;18.90;80.80;;;;;;10793554;33;20051;-77
2022/10/04 23:33:18;;;;;;;7.28;5.90;;;18.80;80.90;;;;;;10794330;32;20028;-77
2022/10/04 23:39:39;;;;;;;6.43;4.37;;;18.80;80.90;;;;;;10794346;33;20388;-77
2022/10/04 23:45:43;;;;;;;12.23;6.03;;;18.80;81.00;;;;;;10793978;33;20051;-77
2022/10/04 23:51:46;;;;;;;6.90;5.12;;;18.80;81.20;;;;;;10793774;33;20055;-77
2022/10/04 23:57:49;;;;;;;7.57;5.20;;;18.80;81.10;;;;;;10793879;33;20377;-77
